Aviation Digital Data Service (ADDS)

Output produced by METARs form (0506 UTC 23 October 2014)
found at http://www.aviationweather.gov/adds/metars/
 
KSAV 230453Z AUTO 00000KT 10SM CLR 12/08 A3007 RMK AO2 SLP182 T01170078 402280106